sensor_id;sensor_type;location;lat;lon;timestamp;P1;durP1;ratioP1;P2;durP2;ratioP2
69716;SDS011;67420;46.144;19.666;2023-07-13T00:06:57;7.70;;;4.22;;
69716;SDS011;67420;46.144;19.666;2023-07-13T00:16:59;8.98;;;4.45;;
69716;SDS011;67420;46.144;19.666;2023-07-13T00:27:02;9.00;;;4.57;;
69716;SDS011;67420;46.144;19.666;2023-07-13T00:37:05;8.48;;;4.57;;
69716;SDS011;67420;46.144;19.666;2023-07-13T00:47:08;6.32;;;4.22;;
69716;SDS011;67420;46.144;19.666;2023-07-13T00:57:12;6.43;;;4.07;;
69716;SDS011;67420;46.144;19.666;2023-07-13T01:07:17;6.82;;;4.20;;
69716;SDS011;67420;46.144;19.666;2023-07-13T01:17:21;7.53;;;4.22;;
69716;SDS011;67420;46.144;19.666;2023-07-13T01:27:24;6.10;;;3.95;;
69716;SDS011;67420;46.144;19.666;2023-07-13T01:37:27;8.02;;;3.92;;
69716;SDS011;67420;46.144;19.666;2023-07-13T01:47:29;7.00;;;4.38;;
69716;SDS011;67420;46.144;19.666;2023-07-13T01:57:33;5.90;;;3.80;;
69716;SDS011;67420;46.144;19.666;2023-07-13T02:07:35;6.65;;;3.65;;
69716;SDS011;67420;46.144;19.666;2023-07-13T02:17:37;5.13;;;3.15;;
69716;SDS011;67420;46.144;19.666;2023-07-13T02:27:39;5.82;;;3.92;;
69716;SDS011;67420;46.144;19.666;2023-07-13T02:37:41;5.03;;;3.53;;
69716;SDS011;67420;46.144;19.666;2023-07-13T02:47:43;5.32;;;3.35;;
69716;SDS011;67420;46.144;19.666;2023-07-13T02:57:45;4.90;;;3.05;;
69716;SDS011;67420;46.144;19.666;2023-07-13T03:07:47;4.32;;;3.10;;
69716;SDS011;67420;46.144;19.666;2023-07-13T03:17:49;5.90;;;3.35;;
69716;SDS011;67420;46.144;19.666;2023-07-13T03:27:51;4.25;;;2.97;;
69716;SDS011;67420;46.144;19.666;2023-07-13T03:37:54;5.13;;;2.85;;
69716;SDS011;67420;46.144;19.666;2023-07-13T03:47:57;7.47;;;3.55;;
69716;SDS011;67420;46.144;19.666;2023-07-13T03:58:45;6.22;;;3.35;;
69716;SDS011;67420;46.144;19.666;2023-07-13T04:08:42;4.30;;;2.80;;
69716;SDS011;67420;46.144;19.666;2023-07-13T04:18:45;4.93;;;2.83;;
69716;SDS011;67420;46.144;19.666;2023-07-13T04:28:48;6.03;;;2.85;;
69716;SDS011;67420;46.144;19.666;2023-07-13T04:38:50;6.50;;;3.45;;
69716;SDS011;67420;46.144;19.666;2023-07-13T04:48:53;4.25;;;2.83;;
69716;SDS011;67420;46.144;19.666;2023-07-13T04:58:56;5.95;;;2.97;;
69716;SDS011;67420;46.144;19.666;2023-07-13T05:08:58;5.10;;;2.90;;
69716;SDS011;67420;46.144;19.666;2023-07-13T05:19:00;5.38;;;2.80;;
69716;SDS011;67420;46.144;19.666;2023-07-13T05:29:02;6.63;;;2.88;;
69716;SDS011;67420;46.144;19.666;2023-07-13T05:39:04;6.10;;;2.80;;
69716;SDS011;67420;46.144;19.666;2023-07-13T05:49:06;4.85;;;2.83;;
69716;SDS011;67420;46.144;19.666;2023-07-13T05:59:07;4.70;;;2.83;;
69716;SDS011;67420;46.144;19.666;2023-07-13T06:09:09;4.72;;;2.75;;
69716;SDS011;67420;46.144;19.666;2023-07-13T06:19:12;4.40;;;2.47;;
69716;SDS011;67420;46.144;19.666;2023-07-13T06:29:14;3.80;;;2.28;;
69716;SDS011;67420;46.144;19.666;2023-07-13T06:39:16;3.38;;;2.00;;
69716;SDS011;67420;46.144;19.666;2023-07-13T06:49:18;3.38;;;2.22;;
69716;SDS011;67420;46.144;19.666;2023-07-13T06:59:20;3.58;;;1.65;;
69716;SDS011;67420;46.144;19.666;2023-07-13T07:09:22;2.25;;;1.98;;
69716;SDS011;67420;46.144;19.666;2023-07-13T07:19:24;3.10;;;1.90;;
69716;SDS011;67420;46.144;19.666;2023-07-13T07:29:26;2.42;;;1.85;;
69716;SDS011;67420;46.144;19.666;2023-07-13T07:39:32;2.13;;;1.67;;
69716;SDS011;67420;46.144;19.666;2023-07-13T07:49:34;2.03;;;1.65;;
69716;SDS011;67420;46.144;19.666;2023-07-13T07:59:38;1.73;;;1.20;;
69716;SDS011;67420;46.144;19.666;2023-07-13T08:09:43;2.58;;;1.40;;
69716;SDS011;67420;46.144;19.666;2023-07-13T08:19:45;1.90;;;1.20;;
69716;SDS011;67420;46.144;19.666;2023-07-13T08:29:48;2.33;;;1.50;;
69716;SDS011;67420;46.144;19.666;2023-07-13T08:39:50;1.55;;;1.20;;
69716;SDS011;67420;46.144;19.666;2023-07-13T08:49:52;2.35;;;1.38;;
69716;SDS011;67420;46.144;19.666;2023-07-13T08:59:56;3.10;;;1.33;;
69716;SDS011;67420;46.144;19.666;2023-07-13T09:10:01;3.03;;;1.33;;
69716;SDS011;67420;46.144;19.666;2023-07-13T09:20:10;1.40;;;1.10;;
69716;SDS011;67420;46.144;19.666;2023-07-13T09:40:21;1.10;;;0.98;;
69716;SDS011;67420;46.144;19.666;2023-07-13T09:50:45;1.35;;;1.00;;
69716;SDS011;67420;46.144;19.666;2023-07-13T10:01:01;1.58;;;1.08;;
69716;SDS011;67420;46.144;19.666;2023-07-13T10:11:18;2.65;;;1.00;;
69716;SDS011;67420;46.144;19.666;2023-07-13T10:21:21;1.20;;;1.00;;
69716;SDS011;67420;46.144;19.666;2023-07-13T10:31:37;5.32;;;1.30;;
69716;SDS011;67420;46.144;19.666;2023-07-13T10:41:41;0.85;;;0.80;;
69716;SDS011;67420;46.144;19.666;2023-07-13T10:51:46;1.42;;;1.10;;
69716;SDS011;67420;46.144;19.666;2023-07-13T11:12:01;7.35;;;4.78;;
69716;SDS011;67420;46.144;19.666;2023-07-13T11:32:24;24.55;;;11.52;;
69716;SDS011;67420;46.144;19.666;2023-07-13T11:42:31;18.95;;;10.98;;
69716;SDS011;67420;46.144;19.666;2023-07-13T11:52:36;7.93;;;4.20;;
69716;SDS011;67420;46.144;19.666;2023-07-13T12:02:40;7.03;;;2.05;;
69716;SDS011;67420;46.144;19.666;2023-07-13T12:12:59;2.63;;;1.35;;
69716;SDS011;67420;46.144;19.666;2023-07-13T12:23:06;2.47;;;1.80;;
69716;SDS011;67420;46.144;19.666;2023-07-13T12:33:24;3.22;;;1.33;;
69716;SDS011;67420;46.144;19.666;2023-07-13T12:43:31;2.70;;;1.50;;
69716;SDS011;67420;46.144;19.666;2023-07-13T12:53:43;4.25;;;1.55;;
69716;SDS011;67420;46.144;19.666;2023-07-13T13:03:51;3.42;;;1.40;;
69716;SDS011;67420;46.144;19.666;2023-07-13T13:13:54;2.13;;;1.52;;
69716;SDS011;67420;46.144;19.666;2023-07-13T13:23:56;3.38;;;1.55;;
69716;SDS011;67420;46.144;19.666;2023-07-13T13:33:58;2.63;;;1.60;;
69716;SDS011;67420;46.144;19.666;2023-07-13T13:44:00;2.80;;;1.27;;
69716;SDS011;67420;46.144;19.666;2023-07-13T13:54:02;2.53;;;1.40;;
69716;SDS011;67420;46.144;19.666;2023-07-13T14:04:05;3.33;;;1.60;;
69716;SDS011;67420;46.144;19.666;2023-07-13T14:14:09;3.78;;;1.70;;
69716;SDS011;67420;46.144;19.666;2023-07-13T14:24:19;2.75;;;1.50;;
69716;SDS011;67420;46.144;19.666;2023-07-13T14:34:23;2.05;;;1.27;;
69716;SDS011;67420;46.144;19.666;2023-07-13T14:44:26;2.75;;;1.52;;
69716;SDS011;67420;46.144;19.666;2023-07-13T14:54:33;2.22;;;1.58;;
69716;SDS011;67420;46.144;19.666;2023-07-13T15:04:36;2.47;;;1.52;;
69716;SDS011;67420;46.144;19.666;2023-07-13T15:14:38;2.55;;;1.73;;
69716;SDS011;67420;46.144;19.666;2023-07-13T15:24:39;2.53;;;1.50;;
69716;SDS011;67420;46.144;19.666;2023-07-13T15:34:42;3.38;;;1.35;;
69716;SDS011;67420;46.144;19.666;2023-07-13T15:44:44;4.78;;;1.52;;
69716;SDS011;67420;46.144;19.666;2023-07-13T15:54:47;2.40;;;1.55;;
69716;SDS011;67420;46.144;19.666;2023-07-13T16:04:50;1.95;;;1.50;;
69716;SDS011;67420;46.144;19.666;2023-07-13T16:14:52;2.42;;;1.48;;
69716;SDS011;67420;46.144;19.666;2023-07-13T16:24:54;2.83;;;1.65;;
69716;SDS011;67420;46.144;19.666;2023-07-13T16:34:58;5.97;;;1.67;;
69716;SDS011;67420;46.144;19.666;2023-07-13T16:45:01;1.50;;;1.40;;
69716;SDS011;67420;46.144;19.666;2023-07-13T16:55:04;3.67;;;1.65;;
69716;SDS011;67420;46.144;19.666;2023-07-13T17:05:08;5.13;;;1.63;;
69716;SDS011;67420;46.144;19.666;2023-07-13T17:15:12;3.65;;;1.52;;
69716;SDS011;67420;46.144;19.666;2023-07-13T17:25:14;2.20;;;1.35;;
69716;SDS011;67420;46.144;19.666;2023-07-13T17:35:27;1.63;;;1.40;;
69716;SDS011;67420;46.144;19.666;2023-07-13T17:45:31;2.00;;;1.20;;
69716;SDS011;67420;46.144;19.666;2023-07-13T17:55:34;3.17;;;1.50;;
69716;SDS011;67420;46.144;19.666;2023-07-13T18:05:36;1.95;;;1.45;;
69716;SDS011;67420;46.144;19.666;2023-07-13T18:15:39;1.90;;;1.45;;
69716;SDS011;67420;46.144;19.666;2023-07-13T18:25:41;2.88;;;1.27;;
69716;SDS011;67420;46.144;19.666;2023-07-13T18:35:44;1.85;;;1.10;;
69716;SDS011;67420;46.144;19.666;2023-07-13T18:45:46;1.48;;;1.20;;
69716;SDS011;67420;46.144;19.666;2023-07-13T18:55:48;2.13;;;1.35;;
69716;SDS011;67420;46.144;19.666;2023-07-13T19:05:50;2.22;;;1.10;;
69716;SDS011;67420;46.144;19.666;2023-07-13T19:16:13;2.42;;;1.20;;
69716;SDS011;67420;46.144;19.666;2023-07-13T19:26:21;1.25;;;1.08;;
69716;SDS011;67420;46.144;19.666;2023-07-13T19:36:26;2.20;;;1.13;;
69716;SDS011;67420;46.144;19.666;2023-07-13T19:46:30;1.88;;;1.30;;
69716;SDS011;67420;46.144;19.666;2023-07-13T19:56:40;1.30;;;1.10;;
69716;SDS011;67420;46.144;19.666;2023-07-13T20:06:42;3.17;;;1.20;;
69716;SDS011;67420;46.144;19.666;2023-07-13T20:16:46;2.60;;;1.77;;
69716;SDS011;67420;46.144;19.666;2023-07-13T20:26:49;4.47;;;2.15;;
69716;SDS011;67420;46.144;19.666;2023-07-13T20:36:52;3.50;;;2.50;;
69716;SDS011;67420;46.144;19.666;2023-07-13T20:46:55;4.50;;;2.33;;
69716;SDS011;67420;46.144;19.666;2023-07-13T20:56:57;3.88;;;2.60;;
69716;SDS011;67420;46.144;19.666;2023-07-13T21:06:59;4.05;;;2.67;;
69716;SDS011;67420;46.144;19.666;2023-07-13T21:17:01;4.15;;;2.78;;
69716;SDS011;67420;46.144;19.666;2023-07-13T21:27:05;3.55;;;2.40;;
69716;SDS011;67420;46.144;19.666;2023-07-13T21:37:14;4.25;;;2.22;;
69716;SDS011;67420;46.144;19.666;2023-07-13T21:47:19;2.33;;;2.03;;
69716;SDS011;67420;46.144;19.666;2023-07-13T21:57:21;3.03;;;2.30;;
69716;SDS011;67420;46.144;19.666;2023-07-13T22:07:23;2.85;;;2.08;;
69716;SDS011;67420;46.144;19.666;2023-07-13T22:17:25;3.08;;;2.00;;
69716;SDS011;67420;46.144;19.666;2023-07-13T22:27:28;3.22;;;1.98;;
69716;SDS011;67420;46.144;19.666;2023-07-13T22:37:32;2.78;;;2.10;;
69716;SDS011;67420;46.144;19.666;2023-07-13T22:47:35;2.13;;;1.80;;
69716;SDS011;67420;46.144;19.666;2023-07-13T22:57:37;2.38;;;1.45;;
69716;SDS011;67420;46.144;19.666;2023-07-13T23:07:39;1.98;;;1.70;;
69716;SDS011;67420;46.144;19.666;2023-07-13T23:17:41;3.15;;;1.90;;
69716;SDS011;67420;46.144;19.666;2023-07-13T23:27:43;1.70;;;1.60;;
69716;SDS011;67420;46.144;19.666;2023-07-13T23:37:46;3.05;;;2.00;;
69716;SDS011;67420;46.144;19.666;2023-07-13T23:47:49;1.67;;;1.58;;
69716;SDS011;67420;46.144;19.666;2023-07-13T23:57:57;2.70;;;1.63;;
